Time;durP1;ratioP1;P1;durP2;ratioP2;P2;SDS_P1;SDS_P2;PMS_P1;PMS_P2;Temp;Humidity;BMP_temperature;BMP_pressure;BME280_temperature;BME280_humidity;BME280_pressure;Samples;Min_cycle;Max_cycle;Signal;HPM_P1;HPM_P2
2021/08/11 00:00:40;;;;;;;2.03;1.63;;;;;;;;;;5054031;28;20178;-51
2021/08/11 00:03:06;;;;;;;2.50;1.52;;;;;;;;;;5054754;28;20021;-51
2021/08/11 00:05:32;;;;;;;2.97;1.92;;;;;;;;;;5054985;28;20071;-51
2021/08/11 00:07:58;;;;;;;2.75;2.00;;;;;;;;;;5054417;28;20366;-51
2021/08/11 00:10:24;;;;;;;2.83;1.95;;;;;;;;;;5054787;28;20020;-51
2021/08/11 00:12:50;;;;;;;2.17;1.70;;;;;;;;;;5054030;28;20025;-52
2021/08/11 00:15:16;;;;;;;7.30;2.05;;;;;;;;;;5054710;28;20032;-51
2021/08/11 00:17:42;;;;;;;3.75;2.13;;;;;;;;;;5054188;28;20071;-53
2021/08/11 00:20:08;;;;;;;9.50;2.25;;;;;;;;;;5054808;28;20037;-51
2021/08/11 00:22:34;;;;;;;5.45;1.73;;;;;;;;;;5053634;28;20029;-51
2021/08/11 00:25:00;;;;;;;7.40;1.90;;;;;;;;;;5053418;28;20095;-52
2021/08/11 00:27:26;;;;;;;6.10;1.90;;;;;;;;;;5054439;28;20443;-51
2021/08/11 00:29:52;;;;;;;6.65;1.90;;;;;;;;;;5054275;28;20060;-52
2021/08/11 00:32:18;;;;;;;6.47;1.67;;;;;;;;;;5053339;28;20035;-52
2021/08/11 00:34:44;;;;;;;4.95;2.40;;;;;;;;;;5053952;28;20025;-51
2021/08/11 00:37:10;;;;;;;3.08;2.00;;;;;;;;;;5054086;28;20025;-52
2021/08/11 00:39:36;;;;;;;3.10;1.80;;;;;;;;;;5054464;28;20048;-52
2021/08/11 00:42:03;;;;;;;3.83;2.35;;;;;;;;;;5053273;28;20029;-51
2021/08/11 00:44:29;;;;;;;4.63;2.38;;;;;;;;;;5053734;28;20455;-51
2021/08/11 00:46:55;;;;;;;7.53;2.25;;;;;;;;;;5053766;28;20025;-51
2021/08/11 00:49:21;;;;;;;2.80;1.77;;;;;;;;;;5053972;28;20108;-51
2021/08/11 00:51:48;;;;;;;3.25;2.33;;;;;;;;;;5053284;28;20100;-52
2021/08/11 00:54:14;;;;;;;2.25;1.80;;;;;;;;;;5053931;28;20021;-52
2021/08/11 00:56:43;;;;;;;3.85;1.98;;;;;;;;;;5053589;28;20025;-52
2021/08/11 00:59:09;;;;;;;3.40;1.75;;;;;;;;;;5053962;28;20025;-51
2021/08/11 01:01:37;;;;;;;6.22;2.20;;;;;;;;;;5052499;28;20404;-51
2021/08/11 01:04:04;;;;;;;5.57;2.30;;;;;;;;;;5053995;28;20032;-51
2021/08/11 01:06:31;;;;;;;4.22;2.00;;;;;;;;;;5053353;28;20102;-52
2021/08/11 01:08:57;;;;;;;6.07;2.55;;;;;;;;;;5053671;28;20109;-51
2021/08/11 01:11:26;;;;;;;7.10;2.05;;;;;;;;;;5053061;28;20075;-52
2021/08/11 01:13:52;;;;;;;3.38;2.03;;;;;;;;;;5053326;28;20025;-51
2021/08/11 01:16:19;;;;;;;3.55;1.95;;;;;;;;;;5053654;28;20033;-51
2021/08/11 01:18:45;;;;;;;3.35;1.80;;;;;;;;;;5053796;28;20021;-52
2021/08/11 01:21:29;;;;;;;4.78;2.47;;;;;;;;;;5051985;28;20039;-51
2021/08/11 01:23:55;;;;;;;4.75;2.35;;;;;;;;;;5053731;28;20032;-51
2021/08/11 01:26:45;;;;;;;4.55;2.03;;;;;;;;;;5053123;28;20530;-52
2021/08/11 01:29:17;;;;;;;2.93;2.10;;;;;;;;;;5052874;28;20055;-52
2021/08/11 01:31:48;;;;;;;5.97;2.17;;;;;;;;;;5052033;28;20029;-51
2021/08/11 01:34:24;;;;;;;3.75;2.10;;;;;;;;;;5053606;28;20091;-51
2021/08/11 01:36:54;;;;;;;4.53;1.80;;;;;;;;;;5052369;28;20078;-51
2021/08/11 01:39:35;;;;;;;4.30;2.28;;;;;;;;;;5053422;28;20078;-51
2021/08/11 01:42:06;;;;;;;3.28;2.33;;;;;;;;;;5058342;28;20100;-51
2021/08/11 01:44:42;;;;;;;4.57;1.85;;;;;;;;;;5073079;28;20350;-52
2021/08/11 01:47:12;;;;;;;2.40;1.58;;;;;;;;;;5073344;28;20078;-52
2021/08/11 01:49:38;;;;;;;3.40;1.85;;;;;;;;;;5072891;28;20085;-51
2021/08/11 01:52:05;;;;;;;4.57;1.73;;;;;;;;;;5072293;28;20056;-52
2021/08/11 01:54:34;;;;;;;3.55;2.13;;;;;;;;;;5072979;28;20351;-52
2021/08/11 01:57:01;;;;;;;4.40;2.10;;;;;;;;;;5072939;28;20349;-51
2021/08/11 01:59:27;;;;;;;2.33;2.03;;;;;;;;;;5072916;28;20040;-51
2021/08/11 02:01:53;;;;;;;5.88;2.15;;;;;;;;;;5071826;28;20020;-51
2021/08/11 02:04:19;;;;;;;2.60;1.80;;;;;;;;;;5072588;28;20361;-51
2021/08/11 02:06:45;;;;;;;5.60;2.30;;;;;;;;;;5072667;28;20056;-51
2021/08/11 02:09:12;;;;;;;3.53;1.95;;;;;;;;;;5072972;28;20021;-51
2021/08/11 02:11:40;;;;;;;4.05;2.30;;;;;;;;;;5071894;28;20066;-51
2021/08/11 02:14:08;;;;;;;4.50;2.25;;;;;;;;;;5073107;28;20031;-51
2021/08/11 02:16:34;;;;;;;2.72;1.77;;;;;;;;;;5072084;28;20349;-51
2021/08/11 02:19:01;;;;;;;3.63;1.77;;;;;;;;;;5073007;28;20024;-51
2021/08/11 02:21:27;;;;;;;4.40;2.35;;;;;;;;;;5071683;28;20021;-52
2021/08/11 02:23:53;;;;;;;5.18;1.90;;;;;;;;;;5072986;28;20024;-51
2021/08/11 02:26:19;;;;;;;3.42;1.90;;;;;;;;;;5072413;28;20050;-52
2021/08/11 02:28:45;;;;;;;5.50;1.95;;;;;;;;;;5072606;28;20029;-51
2021/08/11 02:31:34;;;;;;;6.63;2.13;;;;;;;;;;5071160;28;20030;-51
2021/08/11 02:34:08;;;;;;;2.50;1.67;;;;;;;;;;5062019;28;20045;-51
2021/08/11 02:36:46;;;;;;;3.42;2.13;;;;;;;;;;5054087;28;20036;-51
2021/08/11 02:39:13;;;;;;;2.53;1.70;;;;;;;;;;5052682;28;20021;-52
2021/08/11 02:41:44;;;;;;;2.83;1.60;;;;;;;;;;5051326;28;20499;-51
2021/08/11 02:44:14;;;;;;;6.72;2.15;;;;;;;;;;5052528;28;20021;-51
2021/08/11 02:46:42;;;;;;;3.88;2.15;;;;;;;;;;5052181;28;20032;-51
2021/08/11 02:49:11;;;;;;;3.63;2.08;;;;;;;;;;5054040;28;20048;-51
2021/08/11 02:51:37;;;;;;;6.00;2.50;;;;;;;;;;5055785;28;20025;-51
2021/08/11 02:54:06;;;;;;;4.03;2.35;;;;;;;;;;5049616;28;20279;-51
2021/08/11 02:56:32;;;;;;;4.43;2.05;;;;;;;;;;5056309;28;20021;-51
2021/08/11 02:58:59;;;;;;;2.80;1.98;;;;;;;;;;5055931;28;20078;-51
2021/08/11 03:01:29;;;;;;;4.80;2.00;;;;;;;;;;5055114;28;20109;-51
2021/08/11 03:03:55;;;;;;;6.20;2.47;;;;;;;;;;5056017;28;20017;-51
2021/08/11 03:06:22;;;;;;;3.38;1.73;;;;;;;;;;5055933;28;20348;-51
2021/08/11 03:08:48;;;;;;;4.97;2.40;;;;;;;;;;5055684;28;20128;-51
2021/08/11 03:11:15;;;;;;;4.05;2.00;;;;;;;;;;5055120;28;20021;-51
2021/08/11 03:13:42;;;;;;;4.85;2.08;;;;;;;;;;5055666;28;20470;-51
2021/08/11 03:16:09;;;;;;;5.53;2.40;;;;;;;;;;5055364;28;20155;-51
2021/08/11 03:18:35;;;;;;;6.88;2.38;;;;;;;;;;5055972;28;20350;-51
2021/08/11 03:21:01;;;;;;;3.95;2.30;;;;;;;;;;5055242;28;20017;-51
2021/08/11 03:23:27;;;;;;;7.72;2.28;;;;;;;;;;5055588;28;20351;-51
2021/08/11 03:25:53;;;;;;;3.63;2.00;;;;;;;;;;5055766;28;20036;-51
2021/08/11 03:28:19;;;;;;;6.88;2.45;;;;;;;;;;5055424;28;20099;-52
2021/08/11 03:30:45;;;;;;;6.75;2.03;;;;;;;;;;5054254;28;20028;-51
2021/08/11 03:33:11;;;;;;;6.28;2.30;;;;;;;;;;5055460;28;20071;-51
2021/08/11 03:35:37;;;;;;;2.70;2.03;;;;;;;;;;5055034;28;20468;-51
2021/08/11 03:38:03;;;;;;;5.95;2.42;;;;;;;;;;5055210;28;20037;-52
2021/08/11 03:40:29;;;;;;;2.92;1.70;;;;;;;;;;5055046;28;20104;-51
2021/08/11 03:42:55;;;;;;;5.53;2.53;;;;;;;;;;5055339;28;20028;-51
2021/08/11 03:45:22;;;;;;;3.15;1.85;;;;;;;;;;5055421;28;20354;-51
2021/08/11 03:47:48;;;;;;;3.88;2.17;;;;;;;;;;5054650;28;20355;-51
2021/08/11 03:50:15;;;;;;;5.20;1.88;;;;;;;;;;5054954;28;20021;-51
2021/08/11 03:52:41;;;;;;;3.58;2.20;;;;;;;;;;5054287;28;20036;-51
2021/08/11 03:55:08;;;;;;;3.88;2.10;;;;;;;;;;5055300;28;20104;-51
2021/08/11 03:57:34;;;;;;;3.08;2.10;;;;;;;;;;5054641;28;20112;-51
2021/08/11 04:00:00;;;;;;;5.22;2.30;;;;;;;;;;5054749;28;20183;-51
2021/08/11 04:02:26;;;;;;;5.00;2.38;;;;;;;;;;5053834;28;20443;-51
2021/08/11 04:04:52;;;;;;;3.88;2.03;;;;;;;;;;5055002;28;20024;-51
2021/08/11 04:07:18;;;;;;;3.72;2.03;;;;;;;;;;5055111;28;20033;-51
2021/08/11 04:09:44;;;;;;;6.57;2.53;;;;;;;;;;5054519;28;20029;-51
2021/08/11 04:12:10;;;;;;;3.22;1.85;;;;;;;;;;5054109;28;20110;-51
2021/08/11 04:14:36;;;;;;;4.68;2.60;;;;;;;;;;5054615;28;20490;-51
2021/08/11 04:17:02;;;;;;;5.03;2.33;;;;;;;;;;5054018;28;20019;-51
2021/08/11 04:19:28;;;;;;;4.60;2.00;;;;;;;;;;5054328;28;20394;-51
2021/08/11 04:21:54;;;;;;;4.65;2.33;;;;;;;;;;5053838;28;20176;-52
2021/08/11 04:24:20;;;;;;;6.68;2.72;;;;;;;;;;5054348;28;20047;-51
2021/08/11 04:26:46;;;;;;;7.43;2.90;;;;;;;;;;5054184;28;20025;-51
2021/08/11 04:29:12;;;;;;;4.40;2.17;;;;;;;;;;5053552;28;20477;-51
2021/08/11 04:31:38;;;;;;;2.55;1.70;;;;;;;;;;5052494;28;20446;-51
2021/08/11 04:34:04;;;;;;;3.60;2.70;;;;;;;;;;5053017;28;20078;-51
2021/08/11 04:36:30;;;;;;;7.43;2.60;;;;;;;;;;5052940;28;20029;-52
2021/08/11 04:38:56;;;;;;;3.80;2.38;;;;;;;;;;5052838;28;20025;-51
2021/08/11 04:41:22;;;;;;;4.25;2.05;;;;;;;;;;5051901;28;20332;-52
2021/08/11 04:43:48;;;;;;;3.47;2.15;;;;;;;;;;5053839;28;20099;-51
2021/08/11 04:46:15;;;;;;;5.40;2.50;;;;;;;;;;5054153;28;20055;-51
2021/08/11 04:48:41;;;;;;;7.10;2.40;;;;;;;;;;5053741;28;20082;-52
2021/08/11 04:51:07;;;;;;;3.15;2.22;;;;;;;;;;5053210;28;20017;-51
2021/08/11 04:53:33;;;;;;;3.53;1.67;;;;;;;;;;5053777;28;20397;-52
2021/08/11 04:55:59;;;;;;;3.65;1.95;;;;;;;;;;5053157;28;20522;-52
2021/08/11 04:58:25;;;;;;;4.90;2.50;;;;;;;;;;5053937;28;20167;-52
2021/08/11 05:00:51;;;;;;;6.15;2.83;;;;;;;;;;5053048;28;20104;-52
2021/08/11 05:03:17;;;;;;;9.18;2.40;;;;;;;;;;5053617;28;20351;-52
2021/08/11 05:05:43;;;;;;;3.67;2.45;;;;;;;;;;5053346;28;20032;-52
2021/08/11 05:08:09;;;;;;;3.72;2.22;;;;;;;;;;5053621;28;20037;-51
2021/08/11 05:10:35;;;;;;;9.02;2.40;;;;;;;;;;5052647;28;20027;-51
2021/08/11 05:13:01;;;;;;;3.38;2.35;;;;;;;;;;5053443;28;20280;-51
2021/08/11 05:15:27;;;;;;;5.55;2.72;;;;;;;;;;5055437;28;20408;-51
2021/08/11 05:17:53;;;;;;;4.57;2.40;;;;;;;;;;5053665;28;20025;-51
2021/08/11 05:20:19;;;;;;;8.45;2.97;;;;;;;;;;5053547;28;20572;-51
2021/08/11 05:22:49;;;;;;;4.68;2.53;;;;;;;;;;5052540;28;20041;-51
2021/08/11 05:25:15;;;;;;;4.90;2.00;;;;;;;;;;5052971;28;20032;-51
2021/08/11 05:27:42;;;;;;;6.13;2.00;;;;;;;;;;5053208;28;20101;-51
2021/08/11 05:30:09;;;;;;;4.22;2.38;;;;;;;;;;5053092;28;20025;-52
2021/08/11 05:32:35;;;;;;;10.60;3.08;;;;;;;;;;5052462;28;20033;-51
2021/08/11 05:35:01;;;;;;;4.00;2.33;;;;;;;;;;5059479;28;20354;-51
2021/08/11 05:37:27;;;;;;;6.15;2.67;;;;;;;;;;5053049;28;20406;-51
2021/08/11 05:39:53;;;;;;;4.78;2.38;;;;;;;;;;5052716;28;20021;-51
2021/08/11 05:42:19;;;;;;;8.00;3.10;;;;;;;;;;5052446;28;20036;-51
2021/08/11 05:44:45;;;;;;;5.10;2.25;;;;;;;;;;5053043;28;20049;-51
2021/08/11 05:47:12;;;;;;;5.72;2.40;;;;;;;;;;5052707;28;20443;-51
2021/08/11 05:49:38;;;;;;;11.32;2.83;;;;;;;;;;5052866;28;20481;-51
2021/08/11 05:52:05;;;;;;;10.57;2.65;;;;;;;;;;5052047;28;20020;-51
2021/08/11 05:54:31;;;;;;;11.10;2.90;;;;;;;;;;5052701;28;20028;-51
2021/08/11 05:56:57;;;;;;;4.38;2.85;;;;;;;;;;5053176;28;20024;-51
2021/08/11 05:59:23;;;;;;;6.70;2.88;;;;;;;;;;5052949;28;20025;-51
2021/08/11 06:01:49;;;;;;;6.30;3.20;;;;;;;;;;5051642;28;20052;-51
2021/08/11 06:04:15;;;;;;;8.82;3.45;;;;;;;;;;5052547;28;20430;-51
2021/08/11 06:06:41;;;;;;;10.73;3.50;;;;;;;;;;5052573;28;20031;-51
2021/08/11 06:09:07;;;;;;;6.60;3.17;;;;;;;;;;5052574;28;20032;-51
2021/08/11 06:11:33;;;;;;;9.13;3.22;;;;;;;;;;5052052;28;20031;-51
2021/08/11 06:13:59;;;;;;;4.53;3.08;;;;;;;;;;5052556;28;20473;-51
2021/08/11 06:16:25;;;;;;;6.95;3.65;;;;;;;;;;5052587;28;20026;-51
2021/08/11 06:18:55;;;;;;;8.43;3.33;;;;;;;;;;5052727;28;20087;-51
2021/08/11 06:21:21;;;;;;;8.23;3.72;;;;;;;;;;5051267;28;20479;-52
2021/08/11 06:23:47;;;;;;;5.05;3.28;;;;;;;;;;5054014;28;20059;-51
2021/08/11 06:26:13;;;;;;;7.07;3.40;;;;;;;;;;5056762;28;20438;-51
2021/08/11 06:28:39;;;;;;;8.80;3.47;;;;;;;;;;5056658;28;20128;-51
2021/08/11 06:31:05;;;;;;;9.90;4.32;;;;;;;;;;5055891;28;20052;-51
2021/08/11 06:33:31;;;;;;;17.33;3.35;;;;;;;;;;5056324;28;20033;-51
2021/08/11 06:35:57;;;;;;;7.28;3.60;;;;;;;;;;5055602;28;20032;-51
2021/08/11 06:38:23;;;;;;;7.43;3.90;;;;;;;;;;5056473;28;20036;-51
2021/08/11 06:40:49;;;;;;;9.50;3.60;;;;;;;;;;5055416;28;20032;-51
2021/08/11 06:43:15;;;;;;;6.20;4.13;;;;;;;;;;5056487;28;20451;-51
2021/08/11 06:45:41;;;;;;;9.95;4.03;;;;;;;;;;5056526;28;20084;-51
2021/08/11 06:48:07;;;;;;;9.98;3.90;;;;;;;;;;5056145;28;20536;-51
2021/08/11 06:50:33;;;;;;;13.50;4.22;;;;;;;;;;5056165;28;20029;-51
2021/08/11 06:52:59;;;;;;;6.68;3.95;;;;;;;;;;5056502;28;20025;-51
2021/08/11 06:55:25;;;;;;;17.17;6.15;;;;;;;;;;5056241;28;20136;-51
2021/08/11 06:57:51;;;;;;;16.48;5.63;;;;;;;;;;5056016;28;20033;-51
2021/08/11 07:00:17;;;;;;;10.13;5.43;;;;;;;;;;5056015;28;20420;-51
2021/08/11 07:02:43;;;;;;;13.68;4.10;;;;;;;;;;5055056;28;20455;-51
2021/08/11 07:05:10;;;;;;;6.50;3.88;;;;;;;;;;5055903;28;20025;-51
2021/08/11 07:07:36;;;;;;;8.15;3.47;;;;;;;;;;5055826;28;20102;-51
2021/08/11 07:10:02;;;;;;;10.70;4.40;;;;;;;;;;5056188;28;20029;-51
2021/08/11 07:12:28;;;;;;;6.30;3.70;;;;;;;;;;5055046;28;20024;-51
2021/08/11 07:14:54;;;;;;;11.60;4.03;;;;;;;;;;5055855;28;20025;-51
2021/08/11 07:17:20;;;;;;;10.70;4.03;;;;;;;;;;5055222;28;20060;-52
2021/08/11 07:19:46;;;;;;;8.27;3.72;;;;;;;;;;5055963;28;20028;-51
2021/08/11 07:22:12;;;;;;;6.07;3.58;;;;;;;;;;5054872;28;20041;-51
2021/08/11 07:24:38;;;;;;;4.15;2.88;;;;;;;;;;5055452;28;20029;-51
2021/08/11 07:27:05;;;;;;;8.55;3.63;;;;;;;;;;5055378;28;20029;-51
2021/08/11 07:29:31;;;;;;;6.45;2.42;;;;;;;;;;5055477;28;20461;-51
2021/08/11 07:31:57;;;;;;;4.20;2.53;;;;;;;;;;5054809;28;20120;-51
2021/08/11 07:34:23;;;;;;;9.20;3.30;;;;;;;;;;5054133;28;20017;-51
2021/08/11 07:36:49;;;;;;;6.57;3.28;;;;;;;;;;5055241;28;20111;-51
2021/08/11 07:39:15;;;;;;;5.35;2.95;;;;;;;;;;5055109;28;20036;-51
2021/08/11 07:41:41;;;;;;;6.03;2.75;;;;;;;;;;5054774;28;20047;-51
2021/08/11 07:44:07;;;;;;;6.30;3.33;;;;;;;;;;5055343;28;20100;-51
2021/08/11 07:46:33;;;;;;;7.72;3.20;;;;;;;;;;5055280;28;20470;-51
2021/08/11 07:49:00;;;;;;;5.95;3.70;;;;;;;;;;5055140;28;20269;-51
2021/08/11 07:51:26;;;;;;;6.25;2.72;;;;;;;;;;5054178;28;20117;-51
2021/08/11 07:53:52;;;;;;;8.40;3.15;;;;;;;;;;5055181;28;20040;-51
2021/08/11 07:56:18;;;;;;;10.75;3.22;;;;;;;;;;5055162;28;20025;-51
2021/08/11 07:58:44;;;;;;;6.18;3.63;;;;;;;;;;5055131;28;20033;-51
2021/08/11 08:01:10;;;;;;;8.65;3.97;;;;;;;;;;5054500;28;20397;-51
2021/08/11 08:03:36;;;;;;;10.15;3.17;;;;;;;;;;5054633;28;20021;-51
2021/08/11 08:06:02;;;;;;;9.18;3.55;;;;;;;;;;5054563;28;20028;-51
2021/08/11 08:08:28;;;;;;;7.78;3.60;;;;;;;;;;5054819;28;20037;-51
2021/08/11 08:10:54;;;;;;;8.23;3.50;;;;;;;;;;5053936;28;20454;-51
2021/08/11 08:13:21;;;;;;;7.22;3.25;;;;;;;;;;5055007;28;20022;-52
2021/08/11 08:15:50;;;;;;;11.25;4.28;;;;;;;;;;5054792;28;20028;-52
2021/08/11 08:18:21;;;;;;;11.85;3.92;;;;;;;;;;5054382;28;20073;-51
2021/08/11 08:20:48;;;;;;;3.78;2.80;;;;;;;;;;5054067;28;20090;-52
2021/08/11 08:23:14;;;;;;;4.53;3.42;;;;;;;;;;5054399;28;20037;-51
2021/08/11 08:25:40;;;;;;;4.05;2.47;;;;;;;;;;5054204;28;20024;-51
2021/08/11 08:28:06;;;;;;;3.67;2.60;;;;;;;;;;5054481;28;20029;-51
2021/08/11 08:30:32;;;;;;;5.55;3.28;;;;;;;;;;5053712;28;20127;-51
2021/08/11 08:32:58;;;;;;;4.47;2.42;;;;;;;;;;5053812;28;20032;-51
2021/08/11 08:35:24;;;;;;;6.93;3.80;;;;;;;;;;5054061;28;20025;-51
2021/08/11 08:37:50;;;;;;;5.88;3.55;;;;;;;;;;5054201;28;20029;-51
2021/08/11 08:40:16;;;;;;;10.02;3.60;;;;;;;;;;5054434;28;20029;-51
2021/08/11 08:42:43;;;;;;;7.78;3.03;;;;;;;;;;5053018;28;20040;-51
2021/08/11 08:45:10;;;;;;;3.83;2.38;;;;;;;;;;5053964;28;20096;-51
2021/08/11 08:47:37;;;;;;;4.18;2.63;;;;;;;;;;5052718;28;20031;-51
2021/08/11 08:50:07;;;;;;;8.13;3.60;;;;;;;;;;5054425;28;20272;-51
2021/08/11 08:52:33;;;;;;;5.70;2.30;;;;;;;;;;5053295;28;20336;-51
2021/08/11 08:55:00;;;;;;;7.15;3.45;;;;;;;;;;5054165;28;20306;-51
2021/08/11 08:57:26;;;;;;;12.70;3.17;;;;;;;;;;5053493;28;20465;-51
2021/08/11 08:59:52;;;;;;;5.43;2.20;;;;;;;;;;5053922;28;20021;-51
2021/08/11 09:02:18;;;;;;;4.38;2.80;;;;;;;;;;5053161;28;20032;-51
2021/08/11 09:04:44;;;;;;;4.22;2.05;;;;;;;;;;5053846;28;20121;-51
2021/08/11 09:07:15;;;;;;;3.30;2.10;;;;;;;;;;5053983;28;20179;-52
2021/08/11 09:09:42;;;;;;;8.48;3.83;;;;;;;;;;5053266;28;20032;-51
2021/08/11 09:12:15;;;;;;;7.13;3.45;;;;;;;;;;5052637;28;20043;-51
2021/08/11 09:14:45;;;;;;;6.75;3.80;;;;;;;;;;5053738;28;20482;-51
2021/08/11 09:17:31;;;;;;;6.57;3.30;;;;;;;;;;5053302;28;20064;-51
2021/08/11 09:19:57;;;;;;;6.20;2.85;;;;;;;;;;5053694;28;20033;-51
2021/08/11 09:22:23;;;;;;;10.75;3.72;;;;;;;;;;5052847;28;20033;-51
2021/08/11 09:25:02;;;;;;;6.03;3.85;;;;;;;;;;5052786;28;20455;-51
2021/08/11 09:27:29;;;;;;;15.43;7.15;;;;;;;;;;5053230;28;20123;-51
2021/08/11 09:30:15;;;;;;;6.88;3.83;;;;;;;;;;5053240;28;20021;-51
2021/08/11 09:32:53;;;;;;;7.15;3.78;;;;;;;;;;5051751;28;20033;-51
2021/08/11 09:35:20;;;;;;;8.32;3.45;;;;;;;;;;5052625;28;20021;-51
2021/08/11 09:37:48;;;;;;;6.50;3.33;;;;;;;;;;5053370;28;20017;-51
2021/08/11 09:40:19;;;;;;;11.10;2.88;;;;;;;;;;5053071;28;20037;-51
2021/08/11 09:42:45;;;;;;;4.60;3.30;;;;;;;;;;5052269;28;20048;-51
2021/08/11 09:45:12;;;;;;;6.22;3.85;;;;;;;;;;5053095;28;20032;-51
2021/08/11 09:47:38;;;;;;;7.75;4.20;;;;;;;;;;5052899;28;20139;-51
2021/08/11 09:50:11;;;;;;;8.85;3.90;;;;;;;;;;5052683;28;20548;-51
2021/08/11 09:52:46;;;;;;;7.47;3.58;;;;;;;;;;5052337;28;20512;-51
2021/08/11 09:55:13;;;;;;;13.77;3.50;;;;;;;;;;5052689;28;20087;-51
2021/08/11 09:57:39;;;;;;;7.63;3.88;;;;;;;;;;5052432;28;20031;-51
2021/08/11 10:00:05;;;;;;;13.85;5.70;;;;;;;;;;5052912;28;20052;-51
2021/08/11 10:02:31;;;;;;;10.35;4.82;;;;;;;;;;5051752;28;20086;-51
2021/08/11 10:04:57;;;;;;;10.25;4.50;;;;;;;;;;5052926;28;20063;-51
2021/08/11 10:07:23;;;;;;;10.27;3.85;;;;;;;;;;5052859;28;20037;-51
2021/08/11 10:10:03;;;;;;;5.20;3.13;;;;;;;;;;5052180;28;20052;-51
2021/08/11 10:12:30;;;;;;;3.85;2.92;;;;;;;;;;5051912;28;20067;-51
2021/08/11 10:15:00;;;;;;;5.95;3.55;;;;;;;;;;5051928;28;20029;-51
2021/08/11 10:17:29;;;;;;;5.60;3.50;;;;;;;;;;5052973;28;20087;-51
2021/08/11 10:19:57;;;;;;;8.05;4.25;;;;;;;;;;5052604;28;20111;-52
2021/08/11 10:22:23;;;;;;;5.03;3.00;;;;;;;;;;5051949;28;20033;-51
2021/08/11 10:24:50;;;;;;;9.10;3.78;;;;;;;;;;5052332;28;20021;-51
2021/08/11 10:27:18;;;;;;;5.85;3.60;;;;;;;;;;5051862;28;20494;-51
2021/08/11 10:29:44;;;;;;;11.25;4.55;;;;;;;;;;5052558;28;20451;-51
2021/08/11 10:32:10;;;;;;;11.68;5.10;;;;;;;;;;5051653;28;20450;-51
2021/08/11 10:34:36;;;;;;;9.50;3.47;;;;;;;;;;5052511;28;20033;-51
2021/08/11 10:37:03;;;;;;;5.18;2.65;;;;;;;;;;5052485;28;20354;-51
2021/08/11 10:39:30;;;;;;;5.18;2.72;;;;;;;;;;5052397;28;20076;-51
2021/08/11 10:42:00;;;;;;;5.28;2.67;;;;;;;;;;5051442;28;20032;-52
2021/08/11 10:44:26;;;;;;;3.83;2.25;;;;;;;;;;5052486;28;20350;-51
2021/08/11 10:46:57;;;;;;;4.50;2.55;;;;;;;;;;5052409;28;20025;-51
2021/08/11 10:49:28;;;;;;;5.53;2.55;;;;;;;;;;5052304;28;20116;-51
2021/08/11 10:51:58;;;;;;;7.07;2.80;;;;;;;;;;5051507;28;20196;-51
2021/08/11 10:54:24;;;;;;;5.32;2.92;;;;;;;;;;5051924;28;20029;-51
2021/08/11 10:56:51;;;;;;;4.72;2.75;;;;;;;;;;5052488;28;20069;-51
2021/08/11 10:59:24;;;;;;;6.78;3.38;;;;;;;;;;5052425;28;20052;-51
2021/08/11 11:01:54;;;;;;;5.40;2.58;;;;;;;;;;5051690;28;20029;-51
2021/08/11 11:04:39;;;;;;;4.35;2.53;;;;;;;;;;5052018;28;20116;-52
2021/08/11 11:07:08;;;;;;;5.90;2.47;;;;;;;;;;5052208;28;20514;-51
2021/08/11 11:09:34;;;;;;;4.15;2.40;;;;;;;;;;5053080;28;20028;-51
2021/08/11 11:12:20;;;;;;;4.05;2.58;;;;;;;;;;5055361;28;20074;-51
2021/08/11 11:14:46;;;;;;;4.55;2.22;;;;;;;;;;5055768;28;20032;-51
2021/08/11 11:17:13;;;;;;;3.95;2.47;;;;;;;;;;5055955;28;20091;-51
2021/08/11 11:19:57;;;;;;;4.85;2.50;;;;;;;;;;5055575;28;20037;-51
2021/08/11 11:22:44;;;;;;;6.13;3.00;;;;;;;;;;5054889;28;20531;-51
2021/08/11 11:25:10;;;;;;;4.88;2.65;;;;;;;;;;5054987;28;20086;-51
2021/08/11 11:27:39;;;;;;;4.88;2.55;;;;;;;;;;5055442;28;20039;-52
2021/08/11 11:30:06;;;;;;;5.15;2.58;;;;;;;;;;5055493;28;20039;-51
2021/08/11 11:32:32;;;;;;;6.93;2.70;;;;;;;;;;5054872;28;20454;-51
2021/08/11 11:35:17;;;;;;;5.78;2.78;;;;;;;;;;5055516;28;20031;-51
2021/08/11 11:37:44;;;;;;;7.20;3.30;;;;;;;;;;5055743;28;20021;-52
2021/08/11 11:40:11;;;;;;;4.95;2.80;;;;;;;;;;5055170;28;20489;-51
2021/08/11 11:42:37;;;;;;;5.03;2.97;;;;;;;;;;5054306;28;20048;-51
2021/08/11 11:45:07;;;;;;;6.53;2.80;;;;;;;;;;5055317;28;20074;-52
2021/08/11 11:50:25;;;;;;;6.60;2.28;;;;;;;;;;5055130;28;20028;-52
2021/08/11 11:52:58;;;;;;;3.97;2.65;;;;;;;;;;5053842;28;20164;-51
2021/08/11 11:55:27;;;;;;;4.90;2.55;;;;;;;;;;5055159;28;20025;-51
2021/08/11 11:57:53;;;;;;;6.80;2.72;;;;;;;;;;5054770;28;20017;-51
2021/08/11 12:00:19;;;;;;;4.40;2.47;;;;;;;;;;5054686;28;20029;-52
2021/08/11 12:02:50;;;;;;;5.38;2.80;;;;;;;;;;5054403;28;20028;-51
2021/08/11 12:05:16;;;;;;;4.25;2.83;;;;;;;;;;5054451;28;20463;-51
2021/08/11 12:07:42;;;;;;;9.40;2.83;;;;;;;;;;5054704;28;20032;-51
2021/08/11 12:10:08;;;;;;;3.97;2.80;;;;;;;;;;5054538;28;20033;-51
2021/08/11 12:12:34;;;;;;;3.50;2.75;;;;;;;;;;5053979;28;20036;-52
2021/08/11 12:15:21;;;;;;;5.15;3.10;;;;;;;;;;5054691;28;20355;-51
2021/08/11 12:17:47;;;;;;;6.75;3.65;;;;;;;;;;5054430;28;20049;-51
2021/08/11 12:20:25;;;;;;;6.43;3.13;;;;;;;;;;5054406;28;20506;-51
2021/08/11 12:22:51;;;;;;;4.55;3.20;;;;;;;;;;5053844;28;20522;-51
2021/08/11 12:25:25;;;;;;;5.28;2.80;;;;;;;;;;5054653;28;20120;-52
2021/08/11 12:28:10;;;;;;;4.53;3.05;;;;;;;;;;5054069;28;20358;-52
2021/08/11 12:30:37;;;;;;;8.27;3.30;;;;;;;;;;5053978;28;20367;-52
2021/08/11 12:33:03;;;;;;;6.15;3.42;;;;;;;;;;5054711;28;20086;-52
2021/08/11 12:35:29;;;;;;;4.82;2.90;;;;;;;;;;5054342;28;20028;-52
2021/08/11 12:37:55;;;;;;;6.47;3.42;;;;;;;;;;5054713;28;20017;-51
2021/08/11 12:40:28;;;;;;;7.22;3.20;;;;;;;;;;5054027;28;20509;-51
2021/08/11 12:42:55;;;;;;;7.88;3.38;;;;;;;;;;5053675;28;20570;-51
2021/08/11 12:45:21;;;;;;;5.43;3.15;;;;;;;;;;5054082;28;20021;-51
2021/08/11 12:47:47;;;;;;;3.75;2.70;;;;;;;;;;5054089;28;20110;-51
2021/08/11 12:50:17;;;;;;;6.18;3.22;;;;;;;;;;5054020;28;20021;-51
2021/08/11 12:52:52;;;;;;;6.50;3.40;;;;;;;;;;5053121;28;20025;-52
2021/08/11 12:55:30;;;;;;;11.00;3.28;;;;;;;;;;5053922;28;20139;-51
2021/08/11 12:57:56;;;;;;;4.65;3.15;;;;;;;;;;5054185;28;20029;-51
2021/08/11 13:00:41;;;;;;;7.40;2.83;;;;;;;;;;5054094;28;20362;-51
2021/08/11 13:03:10;;;;;;;6.60;3.83;;;;;;;;;;5054052;28;20029;-51
2021/08/11 13:05:47;;;;;;;5.90;3.13;;;;;;;;;;5053307;28;20032;-51
2021/08/11 13:08:13;;;;;;;6.85;3.78;;;;;;;;;;5053889;28;20072;-51
2021/08/11 13:10:53;;;;;;;6.28;3.72;;;;;;;;;;5053177;28;20017;-51
2021/08/11 13:13:26;;;;;;;6.35;3.40;;;;;;;;;;5053998;28;20056;-51
2021/08/11 13:16:07;;;;;;;8.23;3.67;;;;;;;;;;5053318;28;20072;-51
2021/08/11 13:18:33;;;;;;;7.93;2.90;;;;;;;;;;5053384;28;20162;-51
2021/08/11 13:21:00;;;;;;;4.68;2.83;;;;;;;;;;5052502;28;20432;-51
2021/08/11 13:23:26;;;;;;;5.78;3.50;;;;;;;;;;5053581;28;20370;-51
2021/08/11 13:25:52;;;;;;;7.10;3.60;;;;;;;;;;5053342;28;20450;-52
2021/08/11 13:28:18;;;;;;;6.10;3.58;;;;;;;;;;5053439;28;20029;-51
2021/08/11 13:30:45;;;;;;;8.07;3.72;;;;;;;;;;5051987;28;20152;-51
2021/08/11 13:33:12;;;;;;;6.10;3.47;;;;;;;;;;5053139;28;20098;-52
2021/08/11 13:35:38;;;;;;;4.65;2.92;;;;;;;;;;5053382;28;20036;-51
2021/08/11 13:38:05;;;;;;;4.82;2.97;;;;;;;;;;5053202;28;20411;-51
2021/08/11 13:40:32;;;;;;;5.60;3.00;;;;;;;;;;5052485;28;20017;-51
2021/08/11 13:42:58;;;;;;;11.32;3.85;;;;;;;;;;5053238;28;20052;-51
2021/08/11 13:45:24;;;;;;;5.03;3.42;;;;;;;;;;5052351;28;20442;-51
2021/08/11 13:47:50;;;;;;;7.22;3.80;;;;;;;;;;5053050;28;20029;-51
2021/08/11 13:50:17;;;;;;;7.43;3.13;;;;;;;;;;5053275;28;20053;-51
2021/08/11 13:52:43;;;;;;;6.63;3.50;;;;;;;;;;5051888;28;20451;-51
2021/08/11 13:55:10;;;;;;;5.20;3.05;;;;;;;;;;5052980;28;20017;-51
2021/08/11 13:57:36;;;;;;;7.28;2.80;;;;;;;;;;5052898;28;20108;-51
2021/08/11 14:00:03;;;;;;;6.53;3.47;;;;;;;;;;5052279;28;20033;-51
2021/08/11 14:02:29;;;;;;;5.72;3.10;;;;;;;;;;5052346;28;20033;-52
2021/08/11 14:04:55;;;;;;;5.63;3.05;;;;;;;;;;5052293;28;20083;-51
2021/08/11 14:07:21;;;;;;;7.63;3.88;;;;;;;;;;5052790;28;20120;-51
2021/08/11 14:09:47;;;;;;;9.95;3.92;;;;;;;;;;5052859;28;20029;-51
2021/08/11 14:12:14;;;;;;;4.72;2.88;;;;;;;;;;5051769;28;20029;-51
2021/08/11 14:14:40;;;;;;;7.65;3.65;;;;;;;;;;5052739;28;20086;-52
2021/08/11 14:17:07;;;;;;;7.03;3.17;;;;;;;;;;5052589;28;20025;-51
2021/08/11 14:19:33;;;;;;;9.13;3.80;;;;;;;;;;5052923;28;20056;-56
2021/08/11 14:22:00;;;;;;;7.78;3.55;;;;;;;;;;5051844;28;20124;-56
2021/08/11 14:24:26;;;;;;;5.07;3.20;;;;;;;;;;5052353;28;20032;-56
2021/08/11 14:26:52;;;;;;;5.55;3.30;;;;;;;;;;5052144;28;20025;-56
2021/08/11 14:29:21;;;;;;;7.32;3.58;;;;;;;;;;5060023;28;20048;-56
2021/08/11 14:31:47;;;;;;;6.85;2.88;;;;;;;;;;5061336;28;20071;-56
2021/08/11 14:34:13;;;;;;;6.03;3.38;;;;;;;;;;5061013;28;20027;-56
2021/08/11 14:36:39;;;;;;;4.63;2.83;;;;;;;;;;5058325;28;20346;-56
2021/08/11 14:39:06;;;;;;;6.30;3.63;;;;;;;;;;5062097;28;20028;-55
2021/08/11 14:41:32;;;;;;;8.95;3.85;;;;;;;;;;5059857;28;20029;-56
2021/08/11 14:43:58;;;;;;;7.93;3.90;;;;;;;;;;5062921;28;20393;-56
2021/08/11 14:46:24;;;;;;;4.53;3.13;;;;;;;;;;5065083;28;20466;-56